Time;durP1;ratioP1;P1;durP2;ratioP2;P2;SDS_P1;SDS_P2;PMS_P1;PMS_P2;Temp;Humidity;BMP_temperature;BMP_pressure;BME280_temperature;BME280_humidity;BME280_pressure;Samples;Min_cycle;Max_cycle;Signal;HPM_P1;HPM_P2
2022/01/12 00:01:14;;;;;;;8.53;3.83;;;;;;;18.57;48.28;102127.78;5048649;28;20535;-63
2022/01/12 00:03:39;;;;;;;6.03;4.10;;;;;;;18.63;48.49;102123.59;5048784;28;20414;-63
2022/01/12 00:06:05;;;;;;;7.50;4.50;;;;;;;18.57;48.52;102124.91;5029901;28;20511;-63
2022/01/12 00:08:31;;;;;;;5.50;3.80;;;;;;;18.60;48.81;102129.13;5036303;28;20520;-63
2022/01/12 00:10:58;;;;;;;5.10;3.47;;;;;;;18.61;48.91;102131.66;5038522;28;20314;-63
2022/01/12 00:13:24;;;;;;;5.60;3.30;;;;;;;18.57;49.14;102127.78;5037978;28;20419;-63
2022/01/12 00:15:50;;;;;;;6.13;3.70;;;;;;;18.56;49.22;102122.41;5046153;28;20418;-63
2022/01/12 00:18:15;;;;;;;5.80;3.70;;;;;;;18.63;49.16;102125.59;5038476;28;20184;-63
2022/01/12 00:20:42;;;;;;;6.87;3.43;;;;;;;18.60;49.48;102127.09;5029323;28;20199;-63
2022/01/12 00:23:08;;;;;;;5.33;3.23;;;;;;;18.63;49.65;102129.31;5029556;28;20196;-63
2022/01/12 00:25:45;;;;;;;5.50;3.20;;;;;;;18.61;49.57;102134.50;5028671;28;20450;-63
2022/01/12 00:33:38;;;;;;;5.60;3.07;;;;;;;18.60;50.09;102121.38;5028611;28;20493;-63
2022/01/12 00:36:07;;;;;;;4.60;2.93;;;;;;;18.59;49.99;102125.44;5028372;28;20404;-63
2022/01/12 00:38:33;;;;;;;5.33;3.33;;;;;;;18.59;50.29;102121.72;5011668;28;20231;-63
2022/01/12 00:40:58;;;;;;;5.07;3.13;;;;;;;18.63;50.18;102122.72;5028468;28;20530;-64
2022/01/12 00:43:27;;;;;;;4.60;3.07;;;;;;;18.54;50.59;102124.75;5031491;28;20430;-63
2022/01/12 00:46:20;;;;;;;4.57;3.20;;;;;;;18.53;50.40;102123.06;5031716;28;20628;-63
2022/01/12 00:48:45;;;;;;;5.77;3.30;;;;;;;18.55;50.71;102132.16;5029242;28;20435;-63
2022/01/12 00:51:11;;;;;;;4.03;2.90;;;;;;;18.55;50.83;102132.16;5028804;28;20426;-63
2022/01/12 00:53:38;;;;;;;6.63;3.63;;;;;;;18.51;51.11;102126.25;5028943;28;20177;-63
2022/01/12 00:56:05;;;;;;;9.50;3.70;;;;;;;18.53;51.10;102123.94;5029104;28;20261;-63
2022/01/12 00:58:30;;;;;;;4.57;3.10;;;;;;;18.56;50.81;102122.41;5048283;28;20763;-63
2022/01/12 01:00:55;;;;;;;6.93;3.20;;;;;;;18.54;50.84;102119.88;5047648;28;20481;-63
2022/01/12 01:03:21;;;;;;;3.77;2.90;;;;;;;18.53;51.12;102123.94;5048862;28;20172;-63
2022/01/12 01:05:46;;;;;;;5.93;3.90;;;;;;;18.54;50.77;102119.88;5048309;28;20203;-63
2022/01/12 01:08:12;;;;;;;4.40;2.67;;;;;;;18.50;50.80;102127.44;5049304;28;20172;-63
2022/01/12 01:10:45;;;;;;;4.60;2.80;;;;;;;18.48;51.02;102126.09;5048327;28;20653;-63
2022/01/12 01:13:15;;;;;;;4.10;2.70;;;;;;;18.51;51.09;102116.88;5043619;28;20169;-63
2022/01/12 01:26:25;;;;;;;3.83;2.70;;;;;;;18.47;50.90;102130.97;5038261;28;20472;-63
2022/01/12 01:28:50;;;;;;;4.37;3.30;;;;;;;18.46;51.58;102123.56;5047460;28;20905;-63
2022/01/12 01:31:16;;;;;;;4.60;3.10;;;;;;;18.42;51.54;102122.56;5045210;28;20168;-63
2022/01/12 01:33:41;;;;;;;4.13;2.93;;;;;;;18.46;51.17;102146.44;5030452;28;20180;-63
2022/01/12 01:36:07;;;;;;;4.17;2.80;;;;;;;18.47;51.76;102148.13;5028931;28;20183;-63
2022/01/12 01:38:32;;;;;;;4.93;3.20;;;;;;;18.47;51.65;102159.56;5028457;28;20185;-63
2022/01/12 01:41:01;;;;;;;4.57;3.10;;;;;;;18.43;51.80;102155.72;5010382;28;20246;-63
2022/01/12 01:54:04;;;;;;;4.83;2.90;;;;;;;18.44;51.76;102165.13;5028070;28;20411;-63
2022/01/12 01:56:30;;;;;;;5.13;2.90;;;;;;;18.42;51.51;102165.44;5030732;28;20430;-63
2022/01/12 01:58:56;;;;;;;5.80;2.93;;;;;;;18.42;51.78;102176.91;5047263;28;20184;-63
2022/01/12 02:01:21;;;;;;;4.50;3.40;;;;;;;18.40;51.66;102173.53;5047782;28;20484;-63
2022/01/12 02:03:47;;;;;;;4.90;3.27;;;;;;;18.36;51.76;102181.09;5030145;28;20188;-63
2022/01/12 02:06:12;;;;;;;5.20;2.33;;;;;;;18.38;51.74;102175.91;5048024;28;20195;-63
2022/01/12 02:08:38;;;;;;;5.53;3.30;;;;;;;18.36;52.04;102168.84;5030776;28;20175;-63
2022/01/12 02:11:03;;;;;;;3.90;2.90;;;;;;;18.35;51.98;102172.84;5047418;28;20175;-63
2022/01/12 02:13:29;;;;;;;4.30;3.20;;;;;;;18.34;52.23;102172.03;5047474;28;20549;-63
2022/01/12 02:15:55;;;;;;;6.10;2.73;;;;;;;18.40;51.75;102161.25;5047859;28;20520;-63
2022/01/12 02:40:08;;;;;;;3.80;2.80;;;;;;;18.44;51.63;102170.84;5030744;28;20422;-63
2022/01/12 02:42:34;;;;;;;8.30;2.90;;;;;;;18.39;51.74;102163.28;5013895;28;20446;-63
2022/01/12 02:50:44;;;;;;;4.00;2.80;;;;;;;18.39;52.06;102151.84;5033188;28;20422;-63
2022/01/12 02:55:55;;;;;;;4.70;2.80;;;;;;;18.43;51.76;102147.16;5032625;28;20542;-63
2022/01/12 02:58:20;;;;;;;5.00;2.83;;;;;;;18.39;51.75;102136.69;5047346;28;20437;-63
2022/01/12 03:03:35;;;;;;;5.00;3.17;;;;;;;18.33;52.17;102164.63;5029135;28;20160;-63
2022/01/12 03:06:03;;;;;;;3.37;2.73;;;;;;;18.33;52.28;102169.50;5030914;28;20520;-63
2022/01/12 03:08:37;;;;;;;4.07;2.60;;;;;;;18.34;52.15;102166.31;5030805;28;20442;-63
2022/01/12 03:11:04;;;;;;;4.83;3.03;;;;;;;18.32;52.10;102168.63;5029883;28;20862;-63
2022/01/12 03:13:30;;;;;;;4.73;2.70;;;;;;;18.30;52.44;102170.13;5031030;28;20411;-63
2022/01/12 03:15:56;;;;;;;3.70;2.53;;;;;;;18.35;52.23;102173.69;5030931;28;20434;-63
2022/01/12 03:18:22;;;;;;;3.57;2.50;;;;;;;18.29;52.15;102175.00;5031940;28;20179;-63
2022/01/12 03:20:47;;;;;;;4.57;2.63;;;;;;;18.25;52.28;102171.13;5028943;28;20570;-62
2022/01/12 03:23:14;;;;;;;5.10;2.70;;;;;;;18.20;52.25;102182.72;5030286;28;20176;-63
2022/01/12 03:25:40;;;;;;;3.73;2.70;;;;;;;18.20;52.59;102182.72;5030625;28;20208;-63
2022/01/12 03:28:07;;;;;;;4.60;2.50;;;;;;;18.26;52.51;102186.28;5046850;28;20441;-63
2022/01/12 03:30:41;;;;;;;3.27;2.30;;;;;;;18.22;52.47;102188.13;5050003;28;20187;-63
2022/01/12 03:33:11;;;;;;;3.43;2.50;;;;;;;18.28;52.08;102179.06;5038531;28;20422;-63
2022/01/12 03:35:51;;;;;;;4.07;2.53;;;;;;;18.27;52.05;102174.47;5030341;28;20410;-63
2022/01/12 03:38:20;;;;;;;3.97;2.50;;;;;;;18.25;52.41;102174.00;5030656;28;20406;-63
2022/01/12 03:40:48;;;;;;;4.10;2.60;;;;;;;18.24;52.60;102172.31;5030806;28;20501;-63
2022/01/12 03:43:15;;;;;;;5.60;2.80;;;;;;;18.20;52.48;102165.56;5030582;28;20415;-63
2022/01/12 03:45:40;;;;;;;3.47;2.20;;;;;;;18.26;52.39;102164.22;5012800;28;20517;-63
2022/01/12 03:48:06;;;;;;;3.83;2.53;;;;;;;18.18;52.45;102153.66;5030064;28;20415;-63
2022/01/12 03:50:31;;;;;;;3.80;2.77;;;;;;;18.18;52.70;102161.38;5032195;28;20175;-63
2022/01/12 03:52:57;;;;;;;3.50;2.57;;;;;;;18.17;52.77;102160.50;5030201;28;20199;-63
2022/01/12 03:55:22;;;;;;;4.57;2.60;;;;;;;18.24;52.39;102163.72;5029815;28;20196;-63
2022/01/12 03:57:48;;;;;;;3.13;2.20;;;;;;;18.20;52.70;102162.72;5043169;28;20186;-63
2022/01/12 04:00:14;;;;;;;3.60;2.30;;;;;;;18.26;52.16;102174.84;5049511;28;20216;-63
2022/01/12 04:02:40;;;;;;;3.40;2.80;;;;;;;18.22;52.51;102171.78;5031910;28;20203;-63
2022/01/12 04:05:24;;;;;;;3.17;2.10;;;;;;;18.19;52.34;102178.19;5050026;28;20643;-63
2022/01/12 04:10:33;;;;;;;3.70;2.50;;;;;;;18.23;52.34;102166.91;5048954;28;20433;-63
2022/01/12 04:13:00;;;;;;;3.87;2.60;;;;;;;18.23;52.46;102166.91;5049812;28;20402;-63
2022/01/12 04:15:25;;;;;;;4.07;2.30;;;;;;;18.30;52.31;102170.13;5036101;28;20179;-63
2022/01/12 04:17:50;;;;;;;4.47;2.60;;;;;;;18.36;51.84;102171.69;5036424;28;20422;-63
2022/01/12 04:20:16;;;;;;;3.50;2.57;;;;;;;18.32;52.39;102193.50;5043466;28;20182;-64
2022/01/12 04:25:25;;;;;;;4.50;2.83;;;;;;;18.35;52.13;102184.28;5028807;28;20207;-63
2022/01/12 04:27:52;;;;;;;3.50;2.60;;;;;;;18.31;52.06;102184.09;5043402;28;20905;-62
2022/01/12 04:30:17;;;;;;;3.90;2.50;;;;;;;18.28;52.25;102181.91;5048446;28;20179;-62
2022/01/12 04:32:43;;;;;;;3.50;2.40;;;;;;;18.30;52.19;102181.56;5040004;28;20407;-62
2022/01/12 04:35:10;;;;;;;3.30;2.10;;;;;;;18.29;52.14;102174.16;5029961;28;20188;-62
2022/01/12 04:37:35;;;;;;;3.83;2.33;;;;;;;18.29;52.28;102175.00;5011402;28;20461;-62
2022/01/12 04:40:01;;;;;;;3.77;2.33;;;;;;;18.30;52.25;102179.53;5028192;28;20404;-62
2022/01/12 04:42:27;;;;;;;3.13;2.20;;;;;;;18.29;52.42;102188.44;5029245;28;20192;-62
2022/01/12 04:45:00;;;;;;;3.37;2.20;;;;;;;18.30;52.28;102193.00;5029246;28;20734;-63
2022/01/12 04:47:46;;;;;;;4.13;2.30;;;;;;;18.34;51.88;102206.34;5031814;28;20164;-63
2022/01/12 04:50:12;;;;;;;4.07;2.53;;;;;;;18.24;52.80;102195.19;5028748;28;20410;-63
2022/01/12 04:52:37;;;;;;;4.30;2.70;;;;;;;18.24;52.54;102206.63;5028297;28;20411;-63
2022/01/12 04:55:03;;;;;;;4.87;2.50;;;;;;;18.21;52.25;102223.59;5031097;28;20168;-63
2022/01/12 04:57:28;;;;;;;3.07;2.40;;;;;;;18.26;52.22;102229.16;5040065;28;20187;-63
2022/01/12 05:00:14;;;;;;;3.90;2.50;;;;;;;18.22;52.25;102233.84;5047868;28;20216;-63
2022/01/12 05:08:34;;;;;;;3.53;2.60;;;;;;;18.23;52.50;102232.69;5044732;28;20863;-64
2022/01/12 05:13:47;;;;;;;3.87;2.77;;;;;;;18.22;52.30;102234.69;5028376;28;20466;-63
2022/01/12 05:16:12;;;;;;;3.63;2.50;;;;;;;18.20;52.37;102237.03;5028175;28;20522;-63
2022/01/12 05:18:39;;;;;;;3.40;2.30;;;;;;;18.22;52.47;102234.69;5042300;28;20572;-63
2022/01/12 05:21:05;;;;;;;3.90;2.70;;;;;;;18.23;52.39;102236.38;5047958;28;20203;-63
2022/01/12 05:23:30;;;;;;;3.60;2.33;;;;;;;18.24;52.62;102240.06;5048203;28;20834;-63
2022/01/12 05:25:55;;;;;;;4.20;2.23;;;;;;;18.23;52.43;102239.25;5048127;28;20678;-63
2022/01/12 05:28:21;;;;;;;3.67;2.37;;;;;;;18.25;52.29;102234.03;5047082;28;20180;-63
2022/01/12 05:30:47;;;;;;;3.93;2.33;;;;;;;18.21;52.50;102233.00;5047986;28;20211;-63
2022/01/12 05:33:13;;;;;;;3.77;2.70;;;;;;;18.20;52.46;102234.19;5035155;28;20546;-63
2022/01/12 05:35:38;;;;;;;3.43;2.17;;;;;;;18.20;52.38;102233.31;5031074;28;20213;-63
2022/01/12 05:38:04;;;;;;;3.33;2.30;;;;;;;18.17;52.42;102251.97;5028557;28;20176;-63
2022/01/12 05:40:30;;;;;;;3.83;2.63;;;;;;;18.20;52.47;102259.91;5010036;28;20176;-63
2022/01/12 05:42:58;;;;;;;3.63;2.43;;;;;;;18.21;52.17;102258.72;5028459;28;20462;-63
2022/01/12 05:45:24;;;;;;;3.70;2.53;;;;;;;18.23;52.27;102256.41;5028426;28;20271;-63
2022/01/12 05:50:16;;;;;;;3.67;2.70;;;;;;;18.21;52.73;102258.72;5026882;28;20203;-63
2022/01/12 05:52:41;;;;;;;3.30;2.30;;;;;;;18.22;52.37;102262.44;5010418;28;20176;-61
2022/01/12 05:55:07;;;;;;;4.30;2.67;;;;;;;18.20;52.28;102268.50;5030995;28;20421;-60
2022/01/12 05:57:33;;;;;;;3.80;2.57;;;;;;;18.22;52.30;102256.72;5039246;28;20187;-63
2022/01/12 05:59:59;;;;;;;3.17;2.17;;;;;;;18.21;52.33;102267.31;5047834;28;20468;-62
2022/01/12 06:02:24;;;;;;;3.17;2.37;;;;;;;18.26;52.46;102263.47;5048202;28;20188;-62
2022/01/12 06:04:49;;;;;;;3.17;2.33;;;;;;;18.32;51.90;102265.00;5050186;28;20183;-62
2022/01/12 06:07:15;;;;;;;3.43;2.07;;;;;;;18.27;52.62;102274.56;5034809;28;20295;-63
2022/01/12 06:09:40;;;;;;;3.73;2.40;;;;;;;18.34;51.98;102271.25;5032542;28;20176;-62
2022/01/12 06:12:10;;;;;;;3.63;2.60;;;;;;;18.28;52.23;102273.41;5031773;28;20184;-62
2022/01/12 06:14:36;;;;;;;3.97;2.90;;;;;;;18.33;52.21;102284.72;5034071;28;20637;-62
2022/01/12 06:17:02;;;;;;;2.90;2.20;;;;;;;18.31;52.27;102286.19;5039155;28;20987;-62
2022/01/12 06:19:27;;;;;;;3.77;2.50;;;;;;;18.33;51.97;102275.28;5031530;28;20679;-62
2022/01/12 06:21:53;;;;;;;4.27;2.80;;;;;;;18.26;52.12;102284.31;5031696;28;20454;-63
2022/01/12 06:24:18;;;;;;;3.37;2.40;;;;;;;18.28;52.22;102281.13;5031913;28;20180;-62
2022/01/12 06:26:46;;;;;;;3.90;2.90;;;;;;;18.25;51.98;102285.50;5036014;28;20187;-62
2022/01/12 06:31:38;;;;;;;3.97;2.13;;;;;;;18.31;52.15;102280.47;5039684;28;20469;-62
2022/01/12 06:34:03;;;;;;;3.80;2.57;;;;;;;18.34;52.15;102272.09;5041575;28;20226;-62
2022/01/12 06:36:28;;;;;;;3.83;2.13;;;;;;;18.26;52.14;102270.00;5040878;28;20765;-62
2022/01/12 06:38:54;;;;;;;3.03;1.90;;;;;;;18.24;52.16;102263.81;5022360;28;20172;-63
2022/01/12 06:41:19;;;;;;;3.37;2.43;;;;;;;18.26;52.34;102267.16;5041258;28;20234;-63
2022/01/12 06:43:45;;;;;;;3.93;2.27;;;;;;;18.23;52.27;102264.13;5038062;28;20168;-63
2022/01/12 06:46:10;;;;;;;3.80;2.50;;;;;;;18.22;52.37;102259.59;5040630;28;20167;-63
2022/01/12 06:48:36;;;;;;;4.53;2.60;;;;;;;18.24;52.24;102269.53;5041129;28;20179;-62
2022/01/12 06:51:03;;;;;;;3.90;2.43;;;;;;;18.21;52.67;102275.06;5038611;28;20176;-62
2022/01/12 06:53:29;;;;;;;3.60;2.40;;;;;;;18.22;52.26;102276.75;5040948;28;20168;-62
2022/01/12 06:55:54;;;;;;;3.57;2.43;;;;;;;18.25;52.03;102273.19;5040646;28;20911;-62
2022/01/12 06:58:20;;;;;;;3.30;2.10;;;;;;;18.23;52.23;102273.56;5036647;28;20192;-62
2022/01/12 07:00:45;;;;;;;3.53;2.47;;;;;;;18.23;52.44;102272.69;5033081;28;20759;-62
2022/01/12 07:03:11;;;;;;;3.23;2.10;;;;;;;18.26;52.22;102280.63;5050988;28;20555;-63
2022/01/12 07:05:37;;;;;;;3.43;2.27;;;;;;;18.27;52.24;102294.56;5050390;28;20179;-62
2022/01/12 07:08:02;;;;;;;3.10;2.10;;;;;;;18.23;52.50;102290.72;5047683;28;20180;-62
2022/01/12 07:10:28;;;;;;;3.10;2.37;;;;;;;18.19;52.25;102288.81;5046877;28;20236;-62
2022/01/12 07:12:53;;;;;;;4.20;2.40;;;;;;;18.27;52.24;102290.88;5050929;28;20175;-62
2022/01/12 07:15:19;;;;;;;3.90;2.37;;;;;;;18.23;52.44;102290.72;5050551;28;20725;-63
2022/01/12 07:17:44;;;;;;;3.33;2.20;;;;;;;18.29;52.28;102294.25;5043979;28;20313;-62
2022/01/12 07:20:10;;;;;;;3.57;2.53;;;;;;;18.25;52.45;102293.22;5030194;28;20187;-62
2022/01/12 07:22:35;;;;;;;3.93;2.70;;;;;;;18.21;52.46;102303.66;5030762;28;20235;-62
2022/01/12 07:25:01;;;;;;;4.53;2.63;;;;;;;18.24;52.13;102312.41;5030777;28;20644;-62
2022/01/12 07:27:27;;;;;;;4.13;2.80;;;;;;;18.19;52.61;102318.28;5023217;28;20187;-62
2022/01/12 07:29:52;;;;;;;3.77;2.63;;;;;;;18.20;52.39;102336.25;5038578;28;20172;-63
2022/01/12 07:32:17;;;;;;;3.77;2.53;;;;;;;18.25;52.29;102338.97;5029993;28;20219;-63
2022/01/12 07:34:43;;;;;;;2.60;2.10;;;;;;;18.28;52.07;102353.47;5030790;28;20168;-63
2022/01/12 07:37:08;;;;;;;4.57;2.77;;;;;;;18.24;52.45;102352.44;5030581;28;20551;-62
2022/01/12 07:39:34;;;;;;;3.50;2.70;;;;;;;18.30;52.27;102355.97;5029959;28;20172;-62
2022/01/12 07:41:59;;;;;;;2.83;2.23;;;;;;;18.31;52.15;102363.41;5012857;28;20569;-62
2022/01/12 07:44:25;;;;;;;3.33;2.27;;;;;;;18.26;52.21;102372.94;5030195;28;20176;-62
2022/01/12 07:46:50;;;;;;;4.27;2.40;;;;;;;18.28;52.42;102379.19;5030361;28;20181;-62
2022/01/12 07:49:15;;;;;;;3.37;2.57;;;;;;;18.31;52.08;102371.97;5029829;28;20295;-63
2022/01/12 07:51:41;;;;;;;3.23;1.93;;;;;;;18.23;52.70;102376.47;5032840;28;20175;-62
2022/01/12 07:54:06;;;;;;;4.50;2.50;;;;;;;18.27;52.19;102385.25;5030417;28;20246;-62
2022/01/12 07:56:32;;;;;;;4.00;2.90;;;;;;;18.27;52.46;102388.09;5033101;28;20524;-62
2022/01/12 07:58:57;;;;;;;4.53;2.53;;;;;;;18.31;52.15;102397.72;5049487;28;20179;-62
2022/01/12 08:01:23;;;;;;;3.73;2.63;;;;;;;18.32;52.10;102385.94;5040022;28;20254;-62
2022/01/12 08:03:49;;;;;;;3.53;2.47;;;;;;;18.28;52.51;102382.06;5038457;28;20528;-62
2022/01/12 08:06:14;;;;;;;4.70;2.50;;;;;;;18.32;51.94;102385.94;5034712;28;20200;-62
2022/01/12 08:08:40;;;;;;;3.10;2.50;;;;;;;18.29;52.22;102392.31;5034937;28;20493;-62
2022/01/12 08:11:05;;;;;;;4.23;2.73;;;;;;;18.29;52.29;102392.31;5039878;28;20183;-62
2022/01/12 08:13:31;;;;;;;3.30;2.20;;;;;;;18.25;52.16;102391.28;5042669;28;20180;-62
2022/01/12 08:15:56;;;;;;;2.83;2.07;;;;;;;18.25;52.38;102394.13;5043006;28;20168;-62
2022/01/12 08:18:22;;;;;;;3.33;2.20;;;;;;;18.25;52.33;102401.84;5037256;28;20167;-62
2022/01/12 08:20:47;;;;;;;3.47;2.40;;;;;;;18.28;52.00;102396.34;5036890;28;20172;-62
2022/01/12 08:23:12;;;;;;;3.70;2.70;;;;;;;18.31;52.21;102395.69;5029677;28;20659;-62
2022/01/12 08:25:39;;;;;;;3.67;2.40;;;;;;;18.25;52.42;102387.56;5029953;28;20184;-62
2022/01/12 08:28:07;;;;;;;4.93;2.73;;;;;;;18.23;52.59;102389.91;5044490;28;20196;-62
2022/01/12 08:30:34;;;;;;;4.57;2.67;;;;;;;18.29;51.93;102403.75;5031296;28;20422;-62
2022/01/12 08:33:00;;;;;;;3.00;2.30;;;;;;;18.28;52.21;102404.06;5037559;28;20430;-62
2022/01/12 08:35:27;;;;;;;4.00;2.53;;;;;;;18.09;49.01;102403.47;5027733;28;20414;-62
2022/01/12 08:37:52;;;;;;;15.83;11.87;;;;;;;17.45;49.72;102421.13;5028222;28;20239;-62
2022/01/12 08:40:18;;;;;;;14.93;10.67;;;;;;;17.07;41.94;102422.56;5030288;28;20423;-62
2022/01/12 08:42:44;;;;;;;17.23;13.17;;;;;;;17.80;42.03;102417.41;5030986;28;20192;-62
2022/01/12 08:45:09;;;;;;;17.73;11.70;;;;;;;18.32;41.00;102411.69;5019111;28;20437;-63
2022/01/12 08:47:35;;;;;;;17.83;12.00;;;;;;;18.79;43.22;102419.47;5033927;28;20271;-62
2022/01/12 08:50:00;;;;;;;18.47;12.43;;;;;;;19.19;43.65;102428.84;5020777;28;20239;-62
2022/01/12 08:52:27;;;;;;;17.70;11.50;;;;;;;19.25;44.31;102431.25;5045795;28;20252;-62
2022/01/12 08:54:52;;;;;;;16.63;12.47;;;;;;;19.57;43.90;102438.53;5030473;28;20187;-62
2022/01/12 08:57:18;;;;;;;16.37;11.80;;;;;;;19.89;44.10;102438.88;5047662;28;20437;-61
2022/01/12 08:59:44;;;;;;;15.43;10.60;;;;;;;20.01;43.44;102429.59;5046402;28;20227;-63
2022/01/12 09:02:11;;;;;;;21.40;11.00;;;;;;;19.99;43.57;102429.91;5047841;28;20567;-63
2022/01/12 09:04:37;;;;;;;15.00;11.37;;;;;;;19.95;43.45;102434.66;5037825;28;20180;-63
2022/01/12 09:07:02;;;;;;;17.00;10.80;;;;;;;19.67;43.51;102450.50;5037710;28;20452;-63
2022/01/12 09:09:28;;;;;;;19.60;10.53;;;;;;;19.57;44.18;102453.69;5044427;28;20167;-63
2022/01/12 09:11:53;;;;;;;15.07;11.07;;;;;;;19.20;43.92;102454.28;5030462;28;20172;-63
2022/01/12 09:14:19;;;;;;;16.23;12.07;;;;;;;19.11;42.40;102446.88;5034314;28;20241;-63
2022/01/12 09:16:50;;;;;;;21.57;14.10;;;;;;;18.84;43.24;102453.69;5048321;28;20207;-61
2022/01/12 09:19:16;;;;;;;21.47;13.53;;;;;;;18.73;43.07;102451.44;5039881;28;20241;-61
2022/01/12 09:21:41;;;;;;;19.87;14.70;;;;;;;18.71;42.77;102445.22;5028864;28;20480;-63
2022/01/12 09:24:07;;;;;;;17.30;13.53;;;;;;;18.65;42.58;102455.09;5027918;28;20680;-63
2022/01/12 09:26:32;;;;;;;21.00;14.13;;;;;;;18.67;42.45;102467.88;5030623;28;20241;-63
2022/01/12 09:28:59;;;;;;;21.70;14.60;;;;;;;18.73;42.56;102477.19;5047912;28;20206;-63
2022/01/12 09:31:25;;;;;;;30.00;14.53;;;;;;;18.70;41.81;102484.41;5047482;28;20199;-63
2022/01/12 09:33:50;;;;;;;24.93;14.50;;;;;;;18.76;42.48;102480.22;5029660;28;20450;-63
2022/01/12 09:36:16;;;;;;;21.60;13.40;;;;;;;18.60;43.06;102484.69;5030954;28;20548;-63
2022/01/12 09:38:41;;;;;;;17.20;12.50;;;;;;;18.54;43.38;102482.31;5038578;28;20218;-63
2022/01/12 09:41:07;;;;;;;21.40;13.10;;;;;;;18.57;42.73;102484.53;5051755;28;20208;-63
2022/01/12 09:43:35;;;;;;;18.43;13.07;;;;;;;18.52;42.75;102493.25;5051731;28;20539;-63
2022/01/12 09:46:01;;;;;;;19.63;12.03;;;;;;;18.49;42.49;102499.59;5051966;28;20282;-63
2022/01/12 09:48:29;;;;;;;17.73;12.40;;;;;;;18.56;42.22;102502.84;5050198;28;20437;-63
2022/01/12 09:50:58;;;;;;;20.60;12.60;;;;;;;18.64;42.57;102496.31;5050942;28;20535;-63
2022/01/12 09:53:24;;;;;;;20.67;12.53;;;;;;;18.57;43.00;102502.50;5051831;28;20421;-63
2022/01/12 09:55:49;;;;;;;17.63;11.43;;;;;;;18.53;43.32;102500.63;5051665;28;20918;-64
2022/01/12 09:58:15;;;;;;;17.93;11.60;;;;;;;18.47;43.05;102504.81;5034547;28;20188;-63
2022/01/12 10:00:40;;;;;;;22.50;12.07;;;;;;;18.44;42.73;102514.91;5031486;28;20232;-63
2022/01/12 10:03:12;;;;;;;16.50;10.30;;;;;;;18.42;43.17;102508.63;5032601;28;20241;-63
2022/01/12 10:05:38;;;;;;;19.63;11.40;;;;;;;18.45;42.97;102510.00;5033741;28;20180;-64
2022/01/12 10:08:14;;;;;;;17.10;10.20;;;;;;;18.44;42.67;102520.63;5033542;28;20774;-63
2022/01/12 10:10:47;;;;;;;16.80;10.77;;;;;;;18.40;42.37;102521.56;5031369;28;20180;-64
2022/01/12 10:13:22;;;;;;;16.90;11.33;;;;;;;18.41;42.65;102521.25;5031993;28;20407;-64
2022/01/12 10:15:50;;;;;;;13.53;10.13;;;;;;;18.46;42.19;102517.44;5014754;28;20414;-64
2022/01/12 10:18:15;;;;;;;11.97;8.80;;;;;;;18.19;43.13;102509.81;5033819;28;20431;-64
2022/01/12 10:20:47;;;;;;;12.50;8.60;;;;;;;17.92;41.23;102509.94;5039909;28;20429;-64
2022/01/12 10:23:14;;;;;;;11.80;8.40;;;;;;;17.79;40.42;102509.97;5051183;28;20233;-64
2022/01/12 10:25:41;;;;;;;11.83;8.80;;;;;;;17.72;38.85;102510.44;5048240;28;20499;-64
2022/01/12 10:28:21;;;;;;;11.33;8.47;;;;;;;17.68;36.55;102505.66;5047345;28;20425;-62
2022/01/12 10:31:00;;;;;;;11.93;8.07;;;;;;;17.67;35.29;102502.00;5050758;28;20782;-63
2022/01/12 10:33:30;;;;;;;13.83;8.47;;;;;;;17.65;34.74;102501.44;5018308;28;20430;-63
2022/01/12 10:35:58;;;;;;;12.97;9.03;;;;;;;17.65;33.87;102510.03;5013162;28;20455;-62
2022/01/12 10:38:23;;;;;;;12.67;9.37;;;;;;;17.67;33.53;102524.84;5013562;28;20415;-62
2022/01/12 10:40:51;;;;;;;12.23;8.73;;;;;;;17.63;34.54;102517.22;5042138;28;21012;-63
2022/01/12 10:43:31;;;;;;;16.00;9.43;;;;;;;18.12;32.69;102514.28;5047508;28;20747;-63
2022/01/12 10:45:57;;;;;;;11.90;8.37;;;;;;;18.34;33.41;102514.31;5049581;28;20425;-63
2022/01/12 10:48:26;;;;;;;13.93;8.63;;;;;;;18.64;34.70;102508.63;5044127;28;20426;-63
2022/01/12 10:51:00;;;;;;;14.20;8.37;;;;;;;18.93;34.93;102514.66;5029284;28;20435;-63
2022/01/12 10:53:31;;;;;;;17.47;7.53;;;;;;;19.14;35.66;102507.16;5031427;28;20415;-63
2022/01/12 10:56:10;;;;;;;21.60;8.47;;;;;;;19.32;36.06;102505.22;5030618;28;20422;-63
2022/01/12 10:58:38;;;;;;;22.20;8.33;;;;;;;19.22;36.90;102509.22;5025404;28;20470;-61
2022/01/12 11:01:03;;;;;;;14.70;7.77;;;;;;;19.19;37.76;102497.56;5048569;28;20561;-61
2022/01/12 11:03:30;;;;;;;19.33;7.27;;;;;;;19.27;38.06;102494.75;5029078;28;20481;-61
2022/01/12 11:05:55;;;;;;;18.97;7.87;;;;;;;19.13;38.47;102499.75;5035970;28;20193;-61
2022/01/12 11:08:23;;;;;;;22.63;8.20;;;;;;;19.02;39.48;102491.78;5014072;28;20941;-60
2022/01/12 11:10:49;;;;;;;15.60;7.93;;;;;;;18.87;39.42;102490.19;5030091;28;20173;-60
2022/01/12 11:13:14;;;;;;;17.77;9.00;;;;;;;18.82;39.30;102484.63;5012950;28;20415;-60
2022/01/12 11:15:39;;;;;;;18.27;7.90;;;;;;;18.75;39.69;102474.81;5011992;28;20925;-60
2022/01/12 11:18:05;;;;;;;20.17;8.90;;;;;;;18.85;39.60;102480.25;5020079;28;20176;-60
2022/01/12 11:20:31;;;;;;;24.43;9.20;;;;;;;18.76;40.28;102483.09;5044034;28;20238;-60
2022/01/12 11:23:05;;;;;;;19.60;7.60;;;;;;;18.80;41.12;102472.69;5033426;28;20242;-60
2022/01/12 11:25:41;;;;;;;33.87;9.50;;;;;;;18.80;42.31;102461.22;5012619;28;20226;-61
2022/01/12 11:28:11;;;;;;;30.70;8.60;;;;;;;18.74;42.95;102458.84;5047381;28;20484;-60
2022/01/12 11:30:43;;;;;;;31.00;7.20;;;;;;;18.65;43.71;102453.09;5045302;28;20438;-60
2022/01/12 11:33:09;;;;;;;24.60;7.80;;;;;;;18.70;43.48;102455.81;5049644;28;20434;-60
2022/01/12 11:35:37;;;;;;;18.13;7.40;;;;;;;18.72;43.63;102446.91;5049427;28;20410;-60
2022/01/12 11:38:06;;;;;;;23.83;7.60;;;;;;;18.70;43.52;102438.63;5050839;28;20410;-60
2022/01/12 11:40:40;;;;;;;17.63;7.00;;;;;;;18.67;44.24;102438.47;5049564;28;20415;-60
2022/01/12 11:43:21;;;;;;;24.20;6.70;;;;;;;18.65;44.08;102438.78;5033134;28;20514;-60
2022/01/12 11:45:58;;;;;;;28.00;7.30;;;;;;;18.62;44.46;102433.69;5030301;28;20473;-60
2022/01/12 11:48:35;;;;;;;22.30;7.73;;;;;;;18.63;44.48;102421.13;5014099;28;20522;-59
2022/01/12 11:51:00;;;;;;;16.43;6.53;;;;;;;18.58;45.04;102429.84;5029600;28;20423;-60
2022/01/12 11:53:27;;;;;;;22.53;6.80;;;;;;;18.54;45.13;102423.09;5011997;28;20716;-60
2022/01/12 11:55:53;;;;;;;18.57;6.73;;;;;;;18.58;44.94;102424.13;5030504;28;20544;-60
2022/01/12 11:58:19;;;;;;;24.50;6.57;;;;;;;18.54;45.19;102427.94;5011058;28;20521;-60
2022/01/12 12:00:45;;;;;;;18.63;6.13;;;;;;;18.56;45.04;102426.44;5045522;28;20215;-60
2022/01/12 12:03:18;;;;;;;23.70;6.57;;;;;;;18.60;45.21;102433.19;5029689;28;21056;-60
2022/01/12 12:05:43;;;;;;;21.50;6.80;;;;;;;18.55;45.57;102421.06;5045826;28;20203;-60
2022/01/12 12:08:09;;;;;;;18.60;6.83;;;;;;;18.55;45.63;102419.03;5050125;28;20499;-60
2022/01/12 12:10:39;;;;;;;16.77;6.20;;;;;;;18.54;45.57;102427.94;5049133;28;20543;-60
2022/01/12 12:13:05;;;;;;;17.50;6.13;;;;;;;18.50;45.90;102422.06;5032856;28;20191;-60
2022/01/12 12:15:31;;;;;;;14.03;5.93;;;;;;;18.46;46.10;102429.59;5043817;28;20475;-60
2022/01/12 12:18:03;;;;;;;15.40;5.90;;;;;;;18.45;46.13;102425.06;5028538;28;20467;-60
2022/01/12 12:20:29;;;;;;;21.97;6.07;;;;;;;18.43;46.25;102430.28;5028885;28;20192;-60
2022/01/12 12:22:54;;;;;;;16.83;6.10;;;;;;;18.51;46.08;102431.50;5029391;28;20466;-60
2022/01/12 12:25:21;;;;;;;16.70;6.37;;;;;;;18.44;46.40;102423.38;5029788;28;20530;-60
2022/01/12 12:27:54;;;;;;;16.17;6.10;;;;;;;18.46;46.61;102431.63;5043364;28;20296;-60
2022/01/12 12:30:21;;;;;;;13.03;5.50;;;;;;;18.45;46.60;102432.78;5049042;28;20434;-60
2022/01/12 12:32:49;;;;;;;19.00;4.93;;;;;;;18.44;46.52;102439.69;5039015;28;20460;-60
2022/01/12 12:35:17;;;;;;;14.17;5.53;;;;;;;18.46;46.39;102443.91;5028582;28;20454;-60
2022/01/12 12:37:47;;;;;;;14.50;5.43;;;;;;;18.49;46.73;102443.25;5029448;28;20418;-60
2022/01/12 12:40:23;;;;;;;12.70;5.20;;;;;;;18.45;47.02;102435.63;5031389;28;20919;-60